Time;durP1;ratioP1;P1;durP2;ratioP2;P2;SDS_P1;SDS_P2;PMS_P1;PMS_P2;Temp;Humidity;BMP_temperature;BMP_pressure;BME280_temperature;BME280_humidity;BME280_pressure;Samples;Min_cycle;Max_cycle;Signal;HPM_P1;HPM_P2
2024/04/13 00:01:16;;;;;;;12.30;7.60;;;8.50;99.90;;;;;;5391745;26;19996;-83
2024/04/13 00:03:42;;;;;;;17.73;8.02;;;8.50;99.90;;;;;;5359340;26;19997;-85
2024/04/13 00:06:09;;;;;;;16.30;8.07;;;8.50;99.90;;;;;;5364588;26;19996;-85
2024/04/13 00:08:35;;;;;;;19.55;8.35;;;8.50;99.90;;;;;;5353412;26;20390;-85
2024/04/13 00:11:01;;;;;;;16.67;8.55;;;8.40;99.90;;;;;;5393045;26;20080;-83
2024/04/13 00:13:28;;;;;;;16.70;8.27;;;8.50;99.90;;;;;;5359844;26;20012;-84
2024/04/13 00:15:57;;;;;;;12.10;8.05;;;8.50;99.90;;;;;;5362063;26;19992;-83
2024/04/13 00:18:23;;;;;;;15.60;8.15;;;8.50;99.90;;;;;;5384394;26;20005;-83
2024/04/13 00:20:48;;;;;;;13.32;8.10;;;8.50;99.90;;;;;;5350337;26;20001;-84
2024/04/13 00:23:14;;;;;;;14.60;8.13;;;8.50;99.90;;;;;;5386796;26;19991;-84
2024/04/13 00:25:40;;;;;;;10.93;8.35;;;8.50;99.90;;;;;;5389283;26;20403;-84
2024/04/13 00:28:07;;;;;;;14.95;7.88;;;8.50;99.90;;;;;;5382648;26;20000;-85
2024/04/13 00:30:33;;;;;;;12.55;7.65;;;8.50;99.90;;;;;;5381707;26;20009;-84
2024/04/13 00:32:58;;;;;;;25.05;12.98;;;8.50;99.90;;;;;;5363261;26;20015;-85
2024/04/13 00:35:24;;;;;;;16.38;9.85;;;8.40;99.90;;;;;;5375391;26;20005;-85
2024/04/13 00:37:50;;;;;;;18.38;8.20;;;8.40;99.90;;;;;;5361218;21;20005;-53
2024/04/13 00:40:16;;;;;;;18.98;8.48;;;8.40;99.90;;;;;;5364075;26;20005;-51
2024/04/13 00:42:41;;;;;;;13.27;7.30;;;8.40;99.90;;;;;;5361327;26;20008;-50
2024/04/13 00:45:07;;;;;;;11.15;7.32;;;8.40;99.90;;;;;;5365761;26;19992;-50
2024/04/13 00:47:34;;;;;;;14.00;8.45;;;8.40;99.90;;;;;;5363068;26;20015;-53
2024/04/13 00:50:10;;;;;;;12.02;7.72;;;8.40;99.90;;;;;;5363025;26;20016;-48
2024/04/13 00:52:41;;;;;;;12.65;7.28;;;8.30;99.90;;;;;;5357784;26;20011;-49
2024/04/13 00:55:07;;;;;;;15.13;7.03;;;8.30;99.90;;;;;;5335773;26;20462;-56
2024/04/13 00:57:36;;;;;;;15.40;8.55;;;8.30;99.90;;;;;;5365837;26;20003;-55
2024/04/13 01:00:03;;;;;;;16.10;7.82;;;8.30;99.90;;;;;;5361323;26;20007;-53
2024/04/13 01:02:29;;;;;;;12.82;6.72;;;8.20;99.90;;;;;;5359944;26;20015;-54
2024/04/13 01:04:55;;;;;;;13.27;7.00;;;8.20;99.90;;;;;;5358465;26;20048;-51
2024/04/13 01:07:24;;;;;;;13.40;8.23;;;8.20;99.90;;;;;;5366078;26;20008;-50
2024/04/13 01:09:50;;;;;;;11.57;7.43;;;8.20;99.90;;;;;;5354396;26;19993;-50
2024/04/13 01:12:17;;;;;;;10.50;6.90;;;8.10;99.90;;;;;;5367753;26;19996;-50
2024/04/13 01:14:42;;;;;;;14.98;7.00;;;8.10;99.90;;;;;;5358299;26;20406;-54
2024/04/13 01:17:08;;;;;;;9.98;6.28;;;8.10;99.90;;;;;;5366480;26;20004;-51
2024/04/13 01:19:34;;;;;;;15.07;7.72;;;8.10;99.90;;;;;;5361596;26;20001;-52
2024/04/13 01:22:00;;;;;;;13.93;6.85;;;8.10;99.90;;;;;;5336397;26;20004;-49
2024/04/13 01:24:26;;;;;;;15.75;7.90;;;8.10;99.90;;;;;;5363257;26;20015;-52
2024/04/13 01:26:53;;;;;;;9.23;6.68;;;8.00;99.90;;;;;;5368130;26;20011;-52
2024/04/13 01:29:18;;;;;;;14.52;6.63;;;8.00;99.90;;;;;;5364657;26;20000;-55
2024/04/13 01:31:44;;;;;;;8.55;6.32;;;8.00;99.90;;;;;;5367455;26;20674;-52
2024/04/13 01:34:10;;;;;;;15.82;7.43;;;8.00;99.90;;;;;;5366945;26;20000;-52
2024/04/13 01:36:41;;;;;;;10.32;5.93;;;7.90;99.90;;;;;;5366566;26;19996;-51
2024/04/13 01:39:09;;;;;;;10.02;5.90;;;8.00;99.90;;;;;;5370004;26;20008;-51
2024/04/13 01:41:39;;;;;;;8.48;6.38;;;7.90;99.90;;;;;;5367288;26;20016;-51
2024/04/13 01:44:06;;;;;;;15.18;6.65;;;7.90;99.90;;;;;;5374774;26;20032;-54
2024/04/13 01:46:35;;;;;;;10.38;7.28;;;7.90;99.90;;;;;;5369962;26;20011;-54
2024/04/13 01:49:04;;;;;;;8.70;6.03;;;7.90;99.90;;;;;;5372138;26;20018;-51
2024/04/13 01:51:36;;;;;;;10.30;5.82;;;7.90;99.90;;;;;;5368787;26;20004;-51
2024/04/13 01:54:03;;;;;;;8.45;6.10;;;7.90;99.90;;;;;;5369540;26;19993;-53
2024/04/13 01:56:28;;;;;;;13.13;6.65;;;7.90;99.90;;;;;;5371202;26;20000;-51
2024/04/13 01:58:54;;;;;;;14.23;6.57;;;7.90;99.90;;;;;;5371082;26;20743;-50
2024/04/13 02:01:20;;;;;;;10.32;6.30;;;7.90;99.90;;;;;;5367943;26;20004;-52
2024/04/13 02:03:47;;;;;;;11.65;6.28;;;7.90;99.90;;;;;;5371640;26;20029;-50
2024/04/13 02:06:12;;;;;;;9.50;5.63;;;7.90;99.90;;;;;;5369310;26;20008;-55
2024/04/13 02:08:38;;;;;;;11.55;6.22;;;7.90;99.90;;;;;;5369673;26;20070;-54
2024/04/13 02:11:06;;;;;;;7.78;5.00;;;7.90;99.90;;;;;;5369601;26;20337;-54
2024/04/13 02:13:35;;;;;;;8.82;5.68;;;7.90;99.90;;;;;;5367834;26;20015;-52
2024/04/13 02:16:01;;;;;;;9.75;5.45;;;7.90;99.90;;;;;;5366774;26;20023;-53
2024/04/13 02:18:27;;;;;;;7.63;5.22;;;7.90;99.90;;;;;;5369122;26;20453;-52
2024/04/13 02:20:53;;;;;;;8.65;5.07;;;7.90;99.90;;;;;;5369817;26;20004;-50
2024/04/13 02:23:18;;;;;;;6.80;5.28;;;7.90;99.90;;;;;;5334688;26;20032;-54
2024/04/13 02:25:45;;;;;;;9.18;5.53;;;7.90;99.90;;;;;;5369405;26;19997;-51
2024/04/13 02:28:11;;;;;;;7.05;5.32;;;7.90;99.90;;;;;;5365912;26;20009;-54
2024/04/13 02:30:37;;;;;;;6.95;5.40;;;7.90;99.90;;;;;;5364730;26;20004;-49
2024/04/13 02:33:03;;;;;;;13.52;5.95;;;7.90;99.90;;;;;;5366165;26;20612;-51
2024/04/13 02:35:29;;;;;;;12.43;5.97;;;7.90;99.90;;;;;;5368312;26;20487;-49
2024/04/13 02:37:55;;;;;;;14.27;6.57;;;7.90;99.90;;;;;;5367142;26;20000;-50
2024/04/13 02:40:23;;;;;;;8.80;5.85;;;8.00;99.90;;;;;;5368239;26;20000;-56
2024/04/13 02:42:51;;;;;;;9.77;5.82;;;8.00;99.90;;;;;;5368166;26;19996;-48
2024/04/13 02:45:18;;;;;;;9.05;4.25;;;8.00;99.90;;;;;;5369847;26;20014;-49
2024/04/13 02:47:44;;;;;;;7.45;5.35;;;8.00;99.90;;;;;;5371323;26;20515;-53
2024/04/13 02:50:09;;;;;;;6.93;4.88;;;8.00;99.90;;;;;;5367207;26;20011;-49
2024/04/13 02:52:36;;;;;;;8.80;5.65;;;8.00;99.90;;;;;;5367343;26;20563;-47
2024/04/13 02:55:04;;;;;;;7.57;5.30;;;8.10;99.90;;;;;;5368126;26;19996;-50
2024/04/13 02:57:30;;;;;;;8.70;4.03;;;8.10;99.90;;;;;;5363988;26;20679;-50
2024/04/13 02:59:56;;;;;;;7.20;4.82;;;8.10;99.90;;;;;;5363283;26;20383;-50
2024/04/13 03:02:23;;;;;;;7.65;5.28;;;8.10;99.90;;;;;;5366417;26;20325;-52
2024/04/13 03:04:52;;;;;;;10.32;5.50;;;8.10;99.90;;;;;;5364171;26;20081;-52
2024/04/13 03:07:18;;;;;;;9.52;4.85;;;8.20;99.90;;;;;;5367788;26;20450;-50
2024/04/13 03:09:44;;;;;;;7.60;5.55;;;8.10;99.90;;;;;;5365634;26;19992;-52
2024/04/13 03:12:10;;;;;;;8.10;5.15;;;8.10;99.90;;;;;;5368887;26;20456;-52
2024/04/13 03:14:36;;;;;;;6.95;4.88;;;8.20;99.90;;;;;;5368264;26;20139;-51
2024/04/13 03:17:02;;;;;;;8.70;5.20;;;8.20;99.90;;;;;;5363495;26;20345;-51
2024/04/13 03:19:27;;;;;;;6.68;4.47;;;8.20;99.90;;;;;;5362634;26;20008;-50
2024/04/13 03:21:53;;;;;;;8.80;5.00;;;8.20;99.90;;;;;;5339917;26;20041;-52
2024/04/13 03:24:18;;;;;;;9.00;5.05;;;8.20;99.90;;;;;;5363073;26;19996;-51
2024/04/13 03:26:46;;;;;;;9.48;4.43;;;8.20;99.90;;;;;;5366309;26;20000;-49
2024/04/13 03:29:12;;;;;;;9.68;5.20;;;8.20;99.90;;;;;;5366014;26;20000;-53
2024/04/13 03:31:37;;;;;;;9.35;4.70;;;8.20;99.90;;;;;;5367329;26;20011;-53
2024/04/13 03:34:04;;;;;;;6.65;4.75;;;8.20;99.90;;;;;;5366512;26;20746;-51
2024/04/13 03:36:34;;;;;;;9.15;5.15;;;8.20;99.90;;;;;;5368208;26;20010;-54
2024/04/13 03:38:59;;;;;;;6.68;4.57;;;8.20;99.90;;;;;;5362292;26;20012;-53
2024/04/13 03:41:25;;;;;;;7.20;4.65;;;8.20;99.90;;;;;;5371248;26;20000;-49
2024/04/13 03:43:51;;;;;;;7.80;4.78;;;8.20;99.90;;;;;;5360419;26;20008;-51
2024/04/13 03:46:16;;;;;;;7.47;4.50;;;8.20;99.90;;;;;;5368178;26;20004;-54
2024/04/13 03:48:42;;;;;;;6.03;4.65;;;8.20;99.90;;;;;;5364412;26;20028;-53
2024/04/13 03:51:09;;;;;;;5.57;4.00;;;8.20;99.90;;;;;;5366299;26;19996;-53
2024/04/13 03:53:35;;;;;;;6.90;4.38;;;8.10;99.90;;;;;;5366452;26;20011;-50
2024/04/13 03:56:01;;;;;;;8.35;4.75;;;8.10;99.90;;;;;;5364472;26;20008;-50
2024/04/13 03:58:27;;;;;;;8.02;5.43;;;8.10;99.90;;;;;;5365176;26;19996;-53
2024/04/13 04:00:53;;;;;;;7.15;4.32;;;8.10;99.90;;;;;;5363264;26;20019;-54
2024/04/13 04:03:19;;;;;;;7.88;4.80;;;8.10;99.90;;;;;;5310324;26;20016;-56
2024/04/13 04:05:48;;;;;;;7.05;4.55;;;8.10;99.90;;;;;;5368693;26;20498;-54
2024/04/13 04:08:14;;;;;;;9.50;4.60;;;8.10;99.90;;;;;;5362767;26;20089;-51
2024/04/13 04:10:40;;;;;;;7.30;4.38;;;8.10;99.90;;;;;;5335248;26;20348;-56
2024/04/13 04:13:06;;;;;;;5.25;4.55;;;8.10;99.90;;;;;;5331823;26;20536;-53
2024/04/13 04:15:32;;;;;;;11.88;4.32;;;8.20;99.90;;;;;;5359424;26;20086;-51
2024/04/13 04:17:58;;;;;;;7.00;4.60;;;8.20;99.90;;;;;;5367607;26;20000;-54
2024/04/13 04:20:24;;;;;;;11.35;5.05;;;8.20;99.90;;;;;;5338412;26;19992;-55
2024/04/13 04:22:50;;;;;;;6.78;4.18;;;8.20;99.90;;;;;;5367198;26;20535;-52
2024/04/13 04:25:18;;;;;;;5.63;4.25;;;8.20;99.90;;;;;;5365199;26;20074;-55
2024/04/13 04:27:44;;;;;;;7.65;4.55;;;8.20;99.90;;;;;;5362657;26;20012;-54
2024/04/13 04:30:09;;;;;;;6.30;4.70;;;8.20;99.90;;;;;;5332165;26;20004;-51
2024/04/13 04:32:35;;;;;;;6.70;4.15;;;8.20;99.90;;;;;;5366066;26;20012;-54
2024/04/13 04:35:00;;;;;;;6.82;4.00;;;8.20;99.90;;;;;;5367670;26;20074;-50
2024/04/13 04:37:26;;;;;;;6.90;4.47;;;8.20;99.90;;;;;;5357386;26;20013;-50
2024/04/13 04:39:52;;;;;;;10.82;5.05;;;8.30;99.90;;;;;;5364187;26;20499;-51
2024/04/13 04:42:18;;;;;;;5.45;3.78;;;8.30;99.90;;;;;;5361712;26;20015;-54
2024/04/13 04:44:44;;;;;;;7.30;3.90;;;8.20;99.90;;;;;;5367056;26;19997;-50
2024/04/13 04:47:11;;;;;;;7.68;4.20;;;8.30;99.90;;;;;;5339514;26;20012;-50
2024/04/13 04:49:37;;;;;;;7.88;4.25;;;8.30;99.90;;;;;;5361418;26;20004;-52
2024/04/13 04:52:03;;;;;;;6.57;5.35;;;8.30;99.90;;;;;;5337284;26;20015;-51
2024/04/13 04:54:29;;;;;;;7.90;3.90;;;8.30;99.90;;;;;;5364103;26;20009;-54
2024/04/13 04:56:54;;;;;;;7.35;3.60;;;8.30;99.90;;;;;;5367560;26;20005;-52
2024/04/13 04:59:20;;;;;;;9.18;4.20;;;8.30;99.90;;;;;;5360200;26;20505;-50
2024/04/13 05:01:46;;;;;;;7.78;4.90;;;8.30;99.90;;;;;;5364384;26;20463;-50
2024/04/13 05:04:11;;;;;;;5.82;4.20;;;8.30;99.90;;;;;;5358801;26;20246;-48
2024/04/13 05:06:37;;;;;;;8.00;4.88;;;8.40;99.90;;;;;;5365964;26;20000;-51
2024/04/13 05:09:04;;;;;;;6.97;4.18;;;8.40;99.90;;;;;;5363980;26;20000;-56
2024/04/13 05:11:30;;;;;;;6.45;4.88;;;8.50;99.90;;;;;;5366578;26;20011;-51
2024/04/13 05:13:55;;;;;;;7.45;5.47;;;8.50;99.90;;;;;;5370930;26;19993;-51
2024/04/13 05:16:21;;;;;;;10.52;5.40;;;8.60;99.90;;;;;;5341480;26;20012;-50
2024/04/13 05:18:46;;;;;;;7.97;5.35;;;8.60;99.90;;;;;;5366871;26;20011;-52
2024/04/13 05:21:12;;;;;;;8.68;4.90;;;8.70;99.90;;;;;;5359801;26;20000;-49
2024/04/13 05:23:38;;;;;;;11.07;5.72;;;8.80;99.90;;;;;;5364228;26;20074;-49
2024/04/13 05:26:04;;;;;;;10.30;5.78;;;8.90;99.90;;;;;;5368434;26;20012;-53
2024/04/13 05:28:29;;;;;;;8.38;5.47;;;9.00;99.90;;;;;;5366778;26;20074;-52
2024/04/13 05:31:00;;;;;;;7.80;5.38;;;9.00;99.90;;;;;;5365430;26;20028;-54
2024/04/13 05:33:27;;;;;;;6.60;5.00;;;9.20;99.90;;;;;;5360528;26;20008;-50
2024/04/13 05:35:53;;;;;;;7.25;4.90;;;9.30;99.90;;;;;;5365673;26;20008;-50
2024/04/13 05:38:18;;;;;;;9.98;5.47;;;9.40;99.90;;;;;;5362199;26;20458;-54
2024/04/13 05:40:44;;;;;;;8.52;5.55;;;9.50;99.90;;;;;;5365183;26;20051;-51
2024/04/13 05:43:10;;;;;;;8.18;5.35;;;9.60;99.90;;;;;;5368869;26;20000;-51
2024/04/13 05:45:35;;;;;;;7.78;5.00;;;9.70;99.90;;;;;;5335734;26;20349;-56
2024/04/13 05:48:01;;;;;;;10.30;6.20;;;9.80;99.90;;;;;;5365415;26;20008;-51
2024/04/13 05:50:27;;;;;;;10.77;6.22;;;9.90;99.90;;;;;;5361994;26;20009;-52
2024/04/13 05:52:54;;;;;;;8.60;5.80;;;10.00;99.90;;;;;;5402993;21;20018;-52
2024/04/13 05:55:19;;;;;;;8.50;5.68;;;10.10;99.90;;;;;;5419340;26;20454;-52
2024/04/13 05:57:45;;;;;;;9.18;5.85;;;10.20;99.90;;;;;;5413578;26;20097;-55
2024/04/13 06:00:11;;;;;;;8.15;5.57;;;10.30;99.90;;;;;;5416906;26;20072;-52
2024/04/13 06:02:37;;;;;;;11.25;5.90;;;10.30;99.90;;;;;;5417028;26;20014;-55
2024/04/13 06:05:03;;;;;;;10.50;5.75;;;10.40;99.90;;;;;;5428866;26;19995;-51
2024/04/13 06:07:29;;;;;;;7.15;4.68;;;10.50;99.90;;;;;;5421142;26;20521;-52
2024/04/13 06:09:54;;;;;;;9.32;5.40;;;10.50;99.90;;;;;;5424945;26;20065;-54
2024/04/13 06:12:20;;;;;;;10.52;6.05;;;10.60;99.90;;;;;;5431650;26;20072;-52
2024/04/13 06:14:52;;;;;;;10.25;4.68;;;10.70;99.90;;;;;;5419745;26;19999;-50
2024/04/13 06:17:19;;;;;;;7.47;5.18;;;10.80;99.90;;;;;;5423875;26;19995;-52
2024/04/13 06:19:45;;;;;;;12.32;4.82;;;10.90;99.90;;;;;;5417177;26;20010;-50
2024/04/13 06:22:10;;;;;;;10.95;5.20;;;11.00;99.90;;;;;;5424062;26;19995;-52
2024/04/13 06:24:36;;;;;;;9.00;5.78;;;11.10;99.90;;;;;;5425618;26;19994;-52
2024/04/13 06:27:02;;;;;;;8.15;5.57;;;11.20;99.90;;;;;;5425655;26;19998;-53
2024/04/13 06:29:28;;;;;;;6.65;4.40;;;11.30;99.90;;;;;;5423168;26;20326;-50
2024/04/13 06:31:53;;;;;;;10.15;5.20;;;11.30;99.90;;;;;;5424332;26;19999;-55
2024/04/13 06:34:19;;;;;;;8.70;5.28;;;11.40;99.90;;;;;;5426597;26;20009;-50
2024/04/13 06:36:44;;;;;;;13.77;5.47;;;11.50;99.90;;;;;;5422361;26;20007;-50
2024/04/13 06:39:14;;;;;;;7.85;4.32;;;11.60;99.90;;;;;;5428007;26;20363;-54
2024/04/13 06:41:43;;;;;;;5.93;4.45;;;11.70;99.90;;;;;;5418563;26;20007;-47
2024/04/13 06:44:08;;;;;;;8.57;5.03;;;11.80;99.90;;;;;;5421630;26;20010;-54
2024/04/13 06:46:34;;;;;;;7.95;4.82;;;11.80;99.90;;;;;;5424013;26;20003;-50
2024/04/13 06:49:00;;;;;;;7.88;4.63;;;11.90;99.90;;;;;;5421306;26;21014;-50
2024/04/13 06:51:26;;;;;;;5.55;4.22;;;12.00;99.90;;;;;;5423011;26;20018;-52
2024/04/13 06:53:52;;;;;;;8.35;4.78;;;12.10;99.90;;;;;;5418944;26;20054;-53
2024/04/13 06:56:19;;;;;;;5.30;3.85;;;12.30;99.90;;;;;;5426664;26;19995;-48
2024/04/13 06:58:45;;;;;;;7.18;4.43;;;12.30;99.90;;;;;;5418520;26;20071;-49
2024/04/13 07:01:10;;;;;;;5.53;4.32;;;12.50;99.90;;;;;;5422828;26;20404;-50
2024/04/13 07:03:36;;;;;;;6.53;4.20;;;12.60;99.90;;;;;;5417378;26;20022;-49
2024/04/13 07:06:02;;;;;;;7.53;4.10;;;12.70;99.90;;;;;;5421150;26;20015;-54
2024/04/13 07:08:28;;;;;;;8.63;4.10;;;12.80;99.90;;;;;;5428027;26;20050;-51
2024/04/13 07:10:55;;;;;;;5.65;3.35;;;12.90;99.90;;;;;;5425467;26;20483;-54
2024/04/13 07:13:21;;;;;;;5.93;3.67;;;13.00;99.90;;;;;;5418809;26;20007;-50
2024/04/13 07:15:48;;;;;;;8.88;4.05;;;13.10;99.90;;;;;;5422913;26;20024;-49
2024/04/13 07:18:15;;;;;;;7.15;3.95;;;13.20;99.90;;;;;;5430520;26;19998;-50
2024/04/13 07:20:41;;;;;;;6.38;3.42;;;13.30;99.90;;;;;;5414670;26;20081;-51
2024/04/13 07:23:06;;;;;;;5.57;3.22;;;13.40;99.90;;;;;;5380278;26;19999;-51
2024/04/13 07:25:32;;;;;;;5.93;3.40;;;13.40;99.90;;;;;;5421299;26;20465;-50
2024/04/13 07:27:57;;;;;;;7.00;3.15;;;13.60;99.90;;;;;;5422541;26;20102;-48
2024/04/13 07:30:23;;;;;;;6.68;4.35;;;13.80;99.90;;;;;;5417073;26;20452;-50
2024/04/13 07:32:48;;;;;;;5.80;3.42;;;13.80;99.90;;;;;;5424986;26;20084;-50
2024/04/13 07:35:14;;;;;;;6.30;3.40;;;13.90;99.90;;;;;;5425150;26;20010;-49
2024/04/13 07:37:40;;;;;;;4.75;3.22;;;14.00;99.90;;;;;;5420109;26;19996;-53
2024/04/13 07:40:06;;;;;;;5.72;3.60;;;14.00;99.90;;;;;;5425777;26;20315;-52
2024/04/13 07:42:31;;;;;;;5.15;3.67;;;14.10;99.90;;;;;;5427269;26;20014;-49
2024/04/13 07:44:57;;;;;;;5.72;2.75;;;14.10;99.90;;;;;;5420498;26;20007;-48
2024/04/13 07:47:22;;;;;;;10.32;3.45;;;14.20;99.90;;;;;;5423734;26;20010;-49
2024/04/13 07:49:48;;;;;;;4.60;3.00;;;14.30;99.90;;;;;;5422239;26;19991;-48
2024/04/13 07:52:13;;;;;;;6.97;3.22;;;14.30;99.90;;;;;;5424565;26;22882;-53
2024/04/13 07:54:39;;;;;;;5.93;2.58;;;14.30;99.90;;;;;;5384198;26;20432;-54
2024/04/13 07:57:04;;;;;;;7.00;3.30;;;14.30;99.90;;;;;;5429063;26;19999;-48
2024/04/13 07:59:31;;;;;;;4.90;2.80;;;14.40;99.90;;;;;;5422480;26;20007;-49
2024/04/13 08:01:56;;;;;;;4.55;3.10;;;14.60;99.90;;;;;;5416117;26;20072;-53
2024/04/13 08:04:22;;;;;;;6.95;3.15;;;14.70;99.90;;;;;;5421363;26;20007;-52
2024/04/13 08:06:47;;;;;;;6.97;3.45;;;14.70;99.90;;;;;;5418847;26;20018;-48
2024/04/13 08:09:13;;;;;;;4.05;2.45;;;14.80;99.90;;;;;;5417222;26;20008;-50
2024/04/13 08:11:39;;;;;;;8.70;2.65;;;15.00;99.90;;;;;;5419261;26;20004;-53
2024/04/13 08:14:07;;;;;;;8.88;3.00;;;15.20;99.90;;;;;;5426626;26;19991;-50
2024/04/13 08:16:33;;;;;;;5.05;3.10;;;15.40;99.90;;;;;;5417917;26;20082;-49
2024/04/13 08:18:58;;;;;;;7.30;2.97;;;15.50;99.90;;;;;;5421399;26;20355;-51
2024/04/13 08:21:24;;;;;;;5.85;2.42;;;15.70;99.90;;;;;;5391494;26;19999;-53
2024/04/13 08:23:50;;;;;;;5.20;2.33;;;15.80;99.90;;;;;;5420242;26;20005;-54
2024/04/13 08:26:15;;;;;;;3.28;2.55;;;15.90;99.90;;;;;;5426547;26;20014;-52
2024/04/13 08:28:41;;;;;;;5.88;2.80;;;16.00;99.90;;;;;;5426525;26;20565;-55
2024/04/13 08:31:06;;;;;;;5.35;3.30;;;16.10;99.90;;;;;;5425864;26;19995;-55
2024/04/13 08:33:32;;;;;;;3.67;2.35;;;16.20;99.90;;;;;;5427043;26;20659;-53
2024/04/13 08:36:04;;;;;;;3.85;2.08;;;16.30;99.90;;;;;;5423234;26;20015;-50
2024/04/13 08:38:30;;;;;;;5.85;2.78;;;16.40;99.90;;;;;;5422826;26;20013;-50
2024/04/13 08:40:56;;;;;;;3.63;2.13;;;16.50;99.90;;;;;;5427321;26;20064;-51
2024/04/13 08:43:22;;;;;;;7.75;3.15;;;16.70;99.90;;;;;;5429757;26;20072;-52
2024/04/13 08:45:48;;;;;;;6.28;2.58;;;16.70;99.90;;;;;;5430965;26;20466;-50
2024/04/13 08:48:14;;;;;;;5.85;2.75;;;16.70;99.90;;;;;;5428758;26;20022;-50
2024/04/13 08:50:41;;;;;;;5.03;2.40;;;16.90;99.90;;;;;;5421528;26;20745;-50
2024/04/13 08:53:07;;;;;;;6.35;2.72;;;17.00;99.90;;;;;;5422645;26;20015;-51
2024/04/13 08:55:40;;;;;;;7.95;2.60;;;16.90;99.90;;;;;;5429044;26;19998;-50
2024/04/13 08:58:06;;;;;;;4.93;2.42;;;17.10;99.90;;;;;;5421538;26;20021;-49
2024/04/13 09:00:32;;;;;;;4.88;2.28;;;17.20;99.90;;;;;;5428719;26;20490;-54
2024/04/13 09:02:58;;;;;;;3.78;2.83;;;17.30;99.90;;;;;;5419739;26;20022;-54
2024/04/13 09:05:28;;;;;;;4.30;2.30;;;17.30;99.90;;;;;;5426984;26;19999;-51
2024/04/13 09:07:56;;;;;;;6.75;2.75;;;17.20;99.90;;;;;;5426535;26;20398;-52
2024/04/13 09:10:22;;;;;;;3.50;2.92;;;17.10;99.90;;;;;;5419023;26;20550;-49
2024/04/13 09:12:48;;;;;;;3.95;2.60;;;17.10;99.90;;;;;;5432076;26;20010;-49
2024/04/13 09:15:14;;;;;;;6.35;2.13;;;17.10;99.90;;;;;;5425463;26;20026;-54
2024/04/13 09:17:39;;;;;;;6.72;2.75;;;17.20;99.90;;;;;;5419135;26;19996;-53
2024/04/13 09:20:09;;;;;;;5.35;2.40;;;17.40;99.90;;;;;;5425956;26;19995;-53
2024/04/13 09:22:36;;;;;;;4.40;2.50;;;17.60;99.90;;;;;;5429906;26;19991;-52
2024/04/13 09:25:01;;;;;;;5.72;2.30;;;17.70;99.90;;;;;;5419982;26;20007;-50
2024/04/13 09:27:31;;;;;;;11.23;2.42;;;17.90;99.90;;;;;;5423286;26;20003;-54
2024/04/13 09:30:08;;;;;;;3.35;2.13;;;18.00;99.90;;;;;;5419686;26;20000;-51
2024/04/13 09:32:33;;;;;;;4.70;2.30;;;18.00;99.90;;;;;;5420966;26;20010;-55
2024/04/13 09:35:10;;;;;;;4.65;2.83;;;18.00;99.90;;;;;;5417816;26;20031;-50
2024/04/13 09:37:35;;;;;;;3.60;2.08;;;18.20;99.90;;;;;;5419254;26;19995;-51
2024/04/13 09:40:02;;;;;;;3.03;2.72;;;18.30;99.90;;;;;;5428636;26;20075;-51
2024/04/13 09:42:28;;;;;;;3.03;2.35;;;18.30;99.90;;;;;;5433105;26;20009;-48
2024/04/13 09:45:11;;;;;;;4.35;2.35;;;18.30;99.90;;;;;;5424309;26;19998;-53
2024/04/13 09:47:36;;;;;;;4.95;2.55;;;18.20;99.90;;;;;;5424149;26;20003;-48
2024/04/13 09:50:02;;;;;;;6.05;2.53;;;18.00;99.90;;;;;;5424401;26;20000;-51
2024/04/13 09:52:28;;;;;;;4.53;3.08;;;17.70;99.90;;;;;;5427944;26;20009;-51
2024/04/13 09:54:56;;;;;;;3.22;1.80;;;17.60;99.90;;;;;;5425176;26;20400;-56
2024/04/13 09:57:22;;;;;;;3.08;2.33;;;17.60;99.90;;;;;;5411655;26;19991;-52
2024/04/13 09:59:50;;;;;;;6.18;2.70;;;17.60;99.90;;;;;;5422009;26;19999;-54
2024/04/13 10:02:17;;;;;;;6.40;2.30;;;17.60;99.90;;;;;;5424993;26;20040;-51
2024/04/13 10:04:43;;;;;;;5.78;2.50;;;17.70;99.90;;;;;;5422866;26;20489;-52
2024/04/13 10:07:11;;;;;;;3.20;2.35;;;17.50;99.90;;;;;;5427653;26;20045;-51
2024/04/13 10:09:40;;;;;;;5.03;2.25;;;17.60;99.90;;;;;;5419619;26;20495;-56
2024/04/13 10:12:10;;;;;;;4.90;2.30;;;17.50;99.90;;;;;;5434782;26;20396;-53
2024/04/13 10:14:37;;;;;;;3.10;2.30;;;17.50;99.90;;;;;;5427330;26;20470;-52
2024/04/13 10:17:04;;;;;;;3.70;2.55;;;17.50;99.90;;;;;;5424381;26;19992;-51
2024/04/13 10:19:30;;;;;;;5.03;3.05;;;17.50;99.90;;;;;;5391184;26;20017;-50
2024/04/13 10:22:00;;;;;;;5.70;2.22;;;17.60;99.90;;;;;;5429583;26;19991;-51
2024/04/13 10:24:28;;;;;;;2.75;2.00;;;17.80;99.90;;;;;;5431857;26;19998;-52
2024/04/13 10:27:05;;;;;;;2.88;2.10;;;18.00;99.90;;;;;;5424121;26;20038;-50
2024/04/13 10:29:37;;;;;;;3.80;2.20;;;18.10;99.90;;;;;;5419506;26;19995;-50
2024/04/13 10:32:09;;;;;;;4.80;2.42;;;18.30;99.90;;;;;;5432133;26;19995;-54
2024/04/13 10:34:35;;;;;;;4.00;2.40;;;18.50;99.90;;;;;;5423216;26;20016;-49
2024/04/13 10:37:00;;;;;;;3.20;2.10;;;18.60;99.90;;;;;;5428341;26;20079;-51
2024/04/13 10:39:26;;;;;;;4.20;2.22;;;18.70;99.90;;;;;;5420296;26;20035;-49
2024/04/13 10:41:52;;;;;;;4.82;1.95;;;18.70;99.90;;;;;;5428285;26;20526;-50
2024/04/13 10:44:27;;;;;;;3.50;2.13;;;18.80;99.90;;;;;;5423919;26;20437;-50
2024/04/13 10:46:52;;;;;;;3.63;1.73;;;18.70;99.90;;;;;;5423823;26;20007;-52
2024/04/13 10:49:18;;;;;;;6.05;1.60;;;18.70;99.90;;;;;;5424711;26;20280;-50
2024/04/13 10:51:44;;;;;;;3.95;1.63;;;18.70;99.90;;;;;;5423737;26;19991;-50
2024/04/13 10:54:13;;;;;;;3.90;2.05;;;18.70;99.90;;;;;;5426144;26;20022;-51
2024/04/13 10:56:39;;;;;;;3.03;1.67;;;18.80;99.90;;;;;;5432623;26;20383;-53
2024/04/13 10:59:09;;;;;;;4.63;2.42;;;18.70;99.90;;;;;;5420672;26;20009;-53
2024/04/13 11:01:43;;;;;;;4.32;1.98;;;18.70;99.90;;;;;;5425200;26;19994;-52
2024/04/13 11:04:11;;;;;;;5.40;1.75;;;18.70;99.90;;;;;;5422426;26;19991;-50
2024/04/13 11:06:38;;;;;;;6.70;2.13;;;18.80;99.90;;;;;;5426295;26;20027;-52
2024/04/13 11:09:04;;;;;;;4.88;2.28;;;18.90;99.90;;;;;;5422225;26;20006;-47
2024/04/13 11:11:30;;;;;;;5.28;2.33;;;19.00;99.90;;;;;;5424951;26;20000;-47
2024/04/13 11:13:56;;;;;;;2.85;1.65;;;18.90;99.90;;;;;;5420149;26;20067;-56
2024/04/13 11:16:22;;;;;;;4.75;1.70;;;18.90;99.90;;;;;;5429203;26;20810;-53
2024/04/13 11:18:47;;;;;;;3.05;1.65;;;18.90;99.90;;;;;;5419561;26;20500;-53
2024/04/13 11:21:14;;;;;;;4.63;1.58;;;18.90;99.90;;;;;;5423500;26;20018;-52
2024/04/13 11:23:40;;;;;;;5.57;2.17;;;19.00;99.90;;;;;;5419549;26;20030;-52
2024/04/13 11:26:07;;;;;;;6.75;1.98;;;19.10;99.90;;;;;;5426086;26;20003;-53
2024/04/13 11:28:33;;;;;;;4.15;1.52;;;19.20;99.90;;;;;;5391251;26;19999;-53
2024/04/13 11:30:59;;;;;;;3.20;1.65;;;19.20;99.90;;;;;;5428972;26;20043;-51
2024/04/13 11:33:25;;;;;;;3.22;1.65;;;19.20;99.90;;;;;;5425775;26;19996;-50
2024/04/13 11:35:58;;;;;;;3.20;1.55;;;19.30;99.90;;;;;;5421714;26;19995;-52
2024/04/13 11:38:28;;;;;;;4.65;1.70;;;19.40;99.90;;;;;;5425759;26;20342;-52
2024/04/13 11:40:54;;;;;;;4.90;1.90;;;19.50;99.90;;;;;;5427266;26;20730;-51
2024/04/13 11:43:21;;;;;;;3.63;2.08;;;19.50;99.90;;;;;;5426109;26;19991;-51
2024/04/13 11:45:47;;;;;;;4.28;1.95;;;19.40;99.90;;;;;;5430976;26;20003;-52
2024/04/13 11:48:14;;;;;;;4.88;2.33;;;19.40;99.90;;;;;;5430759;26;20000;-52
2024/04/13 11:50:40;;;;;;;5.82;2.10;;;19.40;99.90;;;;;;5428676;26;20018;-52
2024/04/13 11:53:06;;;;;;;3.97;2.03;;;19.30;99.90;;;;;;5445424;20;20006;-93
2024/04/13 11:55:34;;;;;;;5.07;1.73;;;19.30;99.90;;;;;;5433674;26;20006;-91
2024/04/13 11:57:59;;;;;;;4.97;1.90;;;19.30;99.90;;;;;;5476527;21;20013;-53
2024/04/13 12:00:25;;;;;;;4.30;1.92;;;19.20;99.90;;;;;;5444591;26;20054;-52
2024/04/13 12:02:51;;;;;;;5.93;2.13;;;19.30;99.90;;;;;;5410723;26;20002;-51
2024/04/13 12:05:17;;;;;;;3.70;1.67;;;19.30;99.90;;;;;;5403530;26;19995;-55
2024/04/13 12:07:43;;;;;;;2.30;2.05;;;19.30;99.90;;;;;;5402611;26;20011;-54
2024/04/13 12:10:09;;;;;;;3.03;1.95;;;19.30;99.90;;;;;;5403446;26;19996;-55
2024/04/13 12:12:35;;;;;;;4.57;2.47;;;19.30;99.90;;;;;;5406637;26;19999;-55
2024/04/13 12:15:01;;;;;;;2.67;1.67;;;19.30;99.90;;;;;;5373371;26;20002;-50
2024/04/13 12:17:26;;;;;;;3.50;2.10;;;19.30;99.90;;;;;;5404045;26;20005;-52
2024/04/13 12:19:52;;;;;;;3.42;2.00;;;19.30;99.90;;;;;;5411700;26;19998;-47
2024/04/13 12:22:19;;;;;;;3.33;2.30;;;19.30;99.90;;;;;;5400951;26;20003;-54
2024/04/13 12:24:44;;;;;;;3.42;2.25;;;19.30;99.90;;;;;;5412245;26;19995;-51
2024/04/13 12:27:10;;;;;;;5.82;2.83;;;19.40;99.90;;;;;;5375048;26;20077;-52
2024/04/13 12:29:35;;;;;;;5.15;2.50;;;19.60;99.90;;;;;;5408973;26;19999;-56
2024/04/13 12:32:01;;;;;;;5.05;2.53;;;19.60;99.90;;;;;;5411769;26;20006;-53
2024/04/13 12:34:26;;;;;;;7.22;2.13;;;19.80;99.90;;;;;;5409169;26;20150;-54
2024/04/13 12:36:56;;;;;;;3.45;2.38;;;19.80;99.90;;;;;;5375766;26;20008;-54
2024/04/13 12:39:21;;;;;;;3.20;2.30;;;19.80;99.90;;;;;;5410729;26;19995;-54
2024/04/13 12:41:47;;;;;;;5.93;3.05;;;19.90;99.90;;;;;;5378440;26;20004;-53
2024/04/13 12:44:12;;;;;;;3.22;2.03;;;19.80;99.90;;;;;;5405399;26;19992;-55
2024/04/13 12:46:38;;;;;;;4.30;2.90;;;19.80;99.90;;;;;;5411636;26;20019;-51